createdAt,value
2019-01-02T00:00:59.628Z,24.26
2019-01-02T00:01:59.625Z,24.26
2019-01-02T00:02:59.646Z,24.18
2019-01-02T00:03:59.600Z,24.29
2019-01-02T00:04:59.592Z,24.19
2019-01-02T00:05:59.576Z,24.17
2019-01-02T00:06:59.567Z,24.22
2019-01-02T00:07:59.550Z,24.17
2019-01-02T00:08:59.538Z,24.27
2019-01-02T00:09:59.551Z,24.21
2019-01-02T00:10:59.530Z,24.26
2019-01-02T00:11:59.536Z,24.32
2019-01-02T00:12:59.508Z,24.29
2019-01-02T00:13:59.490Z,24.22
2019-01-02T00:14:59.489Z,24.27
2019-01-02T00:15:59.482Z,24.33
2019-01-02T00:16:59.462Z,24.22
2019-01-02T00:17:59.443Z,24.22
2019-01-02T00:18:59.426Z,24.27
2019-01-02T00:19:59.451Z,24.26
2019-01-02T00:20:59.409Z,24.26
2019-01-02T00:21:59.393Z,24.29
2019-01-02T00:22:59.393Z,24.22
2019-01-02T00:23:59.368Z,24.30
2019-01-02T00:24:59.372Z,24.26
2019-01-02T00:25:59.354Z,24.33
2019-01-02T00:26:59.344Z,24.18
2019-01-02T00:27:59.330Z,24.27
2019-01-02T00:28:59.317Z,24.24
2019-01-02T00:29:59.345Z,24.21
2019-01-02T00:30:59.332Z,24.27
2019-01-02T00:31:59.280Z,24.27
2019-01-02T00:32:59.269Z,24.21
2019-01-02T00:33:59.284Z,24.27
2019-01-02T00:34:59.269Z,24.36
2019-01-02T00:35:59.246Z,24.19
2019-01-02T00:36:59.233Z,24.30
2019-01-02T00:37:59.213Z,24.21
2019-01-02T00:38:59.204Z,24.26
2019-01-02T00:39:59.191Z,24.30
2019-01-02T00:40:59.233Z,24.24
2019-01-02T00:41:59.175Z,24.21
2019-01-02T00:42:59.181Z,24.22
2019-01-02T00:43:59.150Z,24.24
2019-01-02T00:44:59.135Z,24.27
2019-01-02T00:45:59.139Z,24.30
2019-01-02T00:46:59.124Z,24.24
2019-01-02T00:47:59.923Z,24.26
2019-01-02T00:48:59.113Z,24.26
2019-01-02T00:49:59.085Z,24.29
2019-01-02T00:50:59.082Z,24.24
2019-01-02T00:51:59.067Z,24.26
2019-01-02T00:52:59.049Z,24.29
2019-01-02T00:53:59.035Z,24.29
2019-01-02T00:54:59.033Z,24.21
2019-01-02T00:55:59.038Z,24.29
2019-01-02T00:56:59.004Z,24.27
2019-01-02T00:57:58.990Z,24.22
2019-01-02T00:58:58.983Z,24.22
2019-01-02T00:59:58.970Z,24.21
2019-01-02T01:00:58.992Z,24.09
2019-01-02T01:01:58.948Z,24.22
2019-01-02T01:02:58.934Z,24.24
2019-01-02T01:03:58.925Z,24.33
2019-01-02T01:04:58.912Z,24.15
2019-01-02T01:05:58.932Z,24.17
2019-01-02T01:06:58.890Z,24.22
2019-01-02T01:07:58.884Z,24.26
2019-01-02T01:08:58.868Z,24.21
2019-01-02T01:09:58.856Z,24.17
2019-01-02T01:10:58.866Z,24.18
2019-01-02T01:11:58.834Z,24.21
2019-01-02T01:12:58.823Z,24.21
2019-01-02T01:13:58.818Z,24.24
2019-01-02T01:14:58.809Z,24.21
2019-01-02T01:15:58.830Z,24.27
2019-01-02T01:16:58.777Z,24.24
2019-01-02T01:17:58.769Z,24.21
2019-01-02T01:18:58.761Z,24.26
2019-01-02T01:19:58.751Z,24.18
2019-01-02T01:20:58.748Z,24.08
2019-01-02T01:21:58.727Z,24.19
2019-01-02T01:22:58.716Z,24.24
2019-01-02T01:23:58.707Z,24.24
2019-01-02T01:24:58.689Z,24.17
2019-01-02T01:25:58.692Z,24.21
2019-01-02T01:26:58.669Z,24.22
2019-01-02T01:27:58.658Z,24.22
2019-01-02T01:28:58.663Z,24.26
2019-01-02T01:29:58.643Z,24.12
2019-01-02T01:30:58.636Z,24.24
2019-01-02T01:31:58.611Z,24.19
2019-01-02T01:32:58.601Z,24.14
2019-01-02T01:33:58.590Z,24.11
2019-01-02T01:34:58.582Z,24.15
2019-01-02T01:35:58.575Z,24.22
2019-01-02T01:36:58.556Z,24.19
2019-01-02T01:37:58.542Z,24.15
2019-01-02T01:38:58.533Z,24.09
2019-01-02T01:39:58.522Z,24.15
2019-01-02T01:40:58.525Z,24.21
2019-01-02T01:41:58.499Z,24.27
2019-01-02T01:42:58.489Z,24.22
2019-01-02T01:43:58.481Z,24.22
2019-01-02T01:44:58.466Z,24.17
2019-01-02T01:45:58.477Z,24.17
2019-01-02T01:46:58.445Z,24.15
2019-01-02T01:47:59.412Z,24.24
2019-01-02T01:48:58.436Z,24.18
2019-01-02T01:49:58.423Z,24.22
2019-01-02T01:50:58.416Z,24.21
2019-01-02T01:51:58.393Z,24.22
2019-01-02T01:52:58.377Z,24.26
2019-01-02T01:53:58.395Z,24.18
2019-01-02T01:54:58.362Z,24.26
2019-01-02T01:55:58.359Z,24.21
2019-01-02T01:56:58.338Z,24.17
2019-01-02T01:57:58.330Z,24.24
2019-01-02T01:58:58.313Z,24.12
2019-01-02T01:59:58.304Z,24.15
2019-01-02T02:00:58.302Z,24.22
2019-01-02T02:01:58.279Z,24.17
2019-01-02T02:02:58.273Z,24.21
2019-01-02T02:03:58.256Z,24.21
2019-01-02T02:04:58.243Z,24.22
2019-01-02T02:05:58.286Z,24.19
2019-01-02T02:06:58.225Z,24.22
2019-01-02T02:07:58.212Z,24.17
2019-01-02T02:08:58.227Z,24.19
2019-01-02T02:09:58.196Z,24.18
2019-01-02T02:10:58.206Z,24.11
2019-01-02T02:11:58.199Z,24.19
2019-01-02T02:12:58.163Z,24.11
2019-01-02T02:13:58.159Z,24.12
2019-01-02T02:14:58.149Z,24.18
2019-01-02T02:15:58.143Z,24.26
2019-01-02T02:16:58.115Z,24.19
2019-01-02T02:17:58.106Z,24.22
2019-01-02T02:18:58.088Z,24.21
2019-01-02T02:19:58.081Z,24.22
2019-01-02T02:20:58.079Z,24.18
2019-01-02T02:21:58.066Z,24.21
2019-01-02T02:22:58.045Z,24.19
2019-01-02T02:23:58.033Z,24.19
2019-01-02T02:24:58.027Z,24.17
2019-01-02T02:25:58.030Z,24.19
2019-01-02T02:26:58.000Z,24.18
2019-01-02T02:27:57.990Z,24.22
2019-01-02T02:28:57.978Z,24.21
2019-01-02T02:29:57.969Z,24.11
2019-01-02T02:30:57.970Z,24.11
2019-01-02T02:31:57.943Z,24.11
2019-01-02T02:32:57.939Z,24.24
2019-01-02T02:33:57.920Z,24.17
2019-01-02T02:34:57.913Z,24.14
2019-01-02T02:35:57.916Z,24.09
2019-01-02T02:36:57.888Z,24.24
2019-01-02T02:37:57.910Z,24.11
2019-01-02T02:38:57.865Z,24.19
2019-01-02T02:39:57.857Z,24.14
2019-01-02T02:40:57.860Z,24.17
2019-01-02T02:41:57.840Z,24.17
2019-01-02T02:42:57.824Z,24.04
2019-01-02T02:43:57.814Z,24.14
2019-01-02T02:44:57.812Z,24.12
2019-01-02T02:45:57.796Z,24.14
2019-01-02T02:46:57.777Z,24.09
2019-01-02T02:47:57.799Z,24.18
2019-01-02T02:48:57.752Z,24.12
2019-01-02T02:49:57.744Z,24.14
2019-01-02T02:50:57.750Z,24.12
2019-01-02T02:51:57.737Z,24.15
2019-01-02T02:52:57.708Z,24.15
2019-01-02T02:53:57.700Z,24.17
2019-01-02T02:54:57.736Z,24.17
2019-01-02T02:55:57.689Z,24.17
2019-01-02T02:56:57.690Z,24.21
2019-01-02T02:57:57.654Z,24.08
2019-01-02T02:58:57.641Z,24.07
2019-01-02T02:59:57.627Z,24.08
2019-01-02T03:00:57.649Z,24.12
2019-01-02T03:01:57.607Z,24.12
2019-01-02T03:02:57.596Z,24.09
2019-01-02T03:03:57.584Z,24.14
2019-01-02T03:04:57.574Z,24.09
2019-01-02T03:05:57.575Z,24.15
2019-01-02T03:06:57.559Z,24.04
2019-01-02T03:07:57.540Z,24.12
2019-01-02T03:08:57.530Z,24.08
2019-01-02T03:09:57.526Z,24.18
2019-01-02T03:10:57.538Z,24.08
2019-01-02T03:11:57.495Z,24.14
2019-01-02T03:12:57.495Z,24.08
2019-01-02T03:13:57.475Z,24.09
2019-01-02T03:14:57.460Z,24.12
2019-01-02T03:15:57.466Z,24.04
2019-01-02T03:16:57.437Z,24.09
2019-01-02T03:17:57.427Z,24.11
2019-01-02T03:18:57.415Z,24.09
2019-01-02T03:19:57.410Z,24.14
2019-01-02T03:20:57.426Z,24.14
2019-01-02T03:21:57.380Z,24.11
2019-01-02T03:22:57.372Z,24.15
2019-01-02T03:23:57.380Z,24.14
2019-01-02T03:24:57.351Z,24.07
2019-01-02T03:25:57.353Z,24.09
2019-01-02T03:26:57.326Z,24.12
2019-01-02T03:27:57.320Z,24.11
2019-01-02T03:28:57.312Z,24.14
2019-01-02T03:29:57.292Z,24.11
2019-01-02T03:30:57.311Z,24.07
2019-01-02T03:31:57.292Z,24.15
2019-01-02T03:32:57.260Z,24.15
2019-01-02T03:33:57.247Z,24.15
2019-01-02T03:34:57.242Z,24.08
2019-01-02T03:35:57.238Z,24.08
2019-01-02T03:36:57.215Z,24.09
2019-01-02T03:37:57.216Z,24.11
2019-01-02T03:38:57.191Z,24.17
2019-01-02T03:39:57.190Z,24.18
2019-01-02T03:40:57.182Z,24.19
2019-01-02T03:41:57.168Z,24.14
2019-01-02T03:42:57.149Z,24.11
2019-01-02T03:43:57.140Z,24.09
2019-01-02T03:44:57.124Z,24.12
2019-01-02T03:45:57.134Z,24.19
2019-01-02T03:46:57.120Z,24.17
2019-01-02T03:47:57.096Z,24.15
2019-01-02T03:48:57.094Z,24.19
2019-01-02T03:49:57.069Z,24.11
2019-01-02T03:50:57.054Z,24.11
2019-01-02T03:51:57.065Z,24.08
2019-01-02T03:52:57.033Z,24.11
2019-01-02T03:53:57.023Z,24.15
2019-01-02T03:54:57.023Z,24.11
2019-01-02T03:55:57.009Z,24.14
2019-01-02T03:56:57.001Z,24.08
2019-01-02T03:57:56.978Z,24.15
2019-01-02T03:58:56.968Z,24.11
2019-01-02T03:59:56.962Z,24.12
2019-01-02T04:00:56.950Z,24.15
2019-01-02T04:01:56.953Z,24.12
2019-01-02T04:02:56.924Z,24.14
2019-01-02T04:03:56.910Z,24.11
2019-01-02T04:04:56.923Z,24.09
2019-01-02T04:05:56.898Z,24.14
2019-01-02T04:06:56.888Z,24.09
2019-01-02T04:07:56.865Z,24.17
2019-01-02T04:08:56.898Z,24.11
2019-01-02T04:09:56.870Z,24.08
2019-01-02T04:10:56.836Z,24.04
2019-01-02T04:11:56.833Z,24.09
2019-01-02T04:12:56.812Z,24.14
2019-01-02T04:13:56.801Z,24.12
2019-01-02T04:14:56.787Z,24.08
2019-01-02T04:15:56.775Z,24.07
2019-01-02T04:16:56.783Z,24.08
2019-01-02T04:17:56.755Z,24.12
2019-01-02T04:18:56.759Z,24.11
2019-01-02T04:19:56.731Z,24.08
2019-01-02T04:20:56.723Z,24.07
2019-01-02T04:21:56.723Z,24.07
2019-01-02T04:22:56.715Z,24.04
2019-01-02T04:23:56.688Z,24.09
2019-01-02T04:24:56.681Z,24.11
2019-01-02T04:25:56.667Z,24.12
2019-01-02T04:26:56.666Z,24.08
2019-01-02T04:27:56.649Z,24.07
2019-01-02T04:28:56.632Z,24.07
2019-01-02T04:29:56.765Z,24.03
2019-01-02T04:30:56.639Z,24.04
2019-01-02T04:31:56.620Z,24.04
2019-01-02T04:32:56.618Z,24.02
2019-01-02T04:33:56.582Z,24.08
2019-01-02T04:34:56.563Z,24.03
2019-01-02T04:35:56.579Z,24.04
2019-01-02T04:36:56.623Z,24.08
2019-01-02T04:37:56.531Z,24.04
2019-01-02T04:38:56.543Z,24.03
2019-01-02T04:39:56.515Z,24.04
2019-01-02T04:40:56.497Z,24.03
2019-01-02T04:41:56.496Z,24.03
2019-01-02T04:42:56.474Z,24.02
2019-01-02T04:43:56.462Z,24.02
2019-01-02T04:44:56.472Z,24.04
2019-01-02T04:45:56.445Z,24.02
2019-01-02T04:46:56.438Z,23.96
2019-01-02T04:47:56.418Z,23.96
2019-01-02T04:48:56.407Z,24.03
2019-01-02T04:49:56.396Z,24.03
2019-01-02T04:50:56.405Z,23.96
2019-01-02T04:51:56.382Z,24.00
2019-01-02T04:52:56.362Z,23.96
2019-01-02T04:53:56.347Z,24.00
2019-01-02T04:54:56.339Z,24.02
2019-01-02T04:55:56.370Z,24.00
2019-01-02T04:56:56.330Z,23.94
2019-01-02T04:57:56.302Z,23.97
2019-01-02T04:58:56.323Z,24.02
2019-01-02T04:59:56.281Z,23.99
2019-01-02T05:00:56.273Z,24.02
2019-01-02T05:01:56.297Z,24.00
2019-01-02T05:02:56.252Z,24.02
2019-01-02T05:03:56.241Z,23.97
2019-01-02T05:04:56.232Z,23.94
2019-01-02T05:05:56.220Z,23.99
2019-01-02T05:06:56.250Z,23.96
2019-01-02T05:07:56.193Z,24.00
2019-01-02T05:08:56.194Z,23.97
2019-01-02T05:09:56.173Z,23.99
2019-01-02T05:10:56.160Z,23.99
2019-01-02T05:11:56.162Z,24.00
2019-01-02T05:12:56.160Z,24.00
2019-01-02T05:13:56.130Z,23.99
2019-01-02T05:14:56.122Z,23.96
2019-01-02T05:15:56.106Z,23.99
2019-01-02T05:16:56.114Z,23.99
2019-01-02T05:17:56.084Z,23.99
2019-01-02T05:18:56.091Z,23.94
2019-01-02T05:19:56.061Z,23.93
2019-01-02T05:20:56.064Z,23.96
2019-01-02T05:21:56.055Z,23.94
2019-01-02T05:22:56.037Z,23.99
2019-01-02T05:23:56.042Z,23.99
2019-01-02T05:24:56.007Z,23.99
2019-01-02T05:25:55.995Z,23.96
2019-01-02T05:26:55.993Z,23.99
2019-01-02T05:27:55.974Z,24.00
2019-01-02T05:28:55.962Z,23.94
2019-01-02T05:29:55.953Z,23.97
2019-01-02T05:30:55.936Z,23.99
2019-01-02T05:31:55.957Z,23.93
2019-01-02T05:32:55.916Z,23.96
2019-01-02T05:33:55.904Z,23.94
2019-01-02T05:34:55.919Z,23.93
2019-01-02T05:35:55.884Z,23.94
2019-01-02T05:36:55.886Z,23.94
2019-01-02T05:37:55.857Z,23.97
2019-01-02T05:38:55.853Z,24.02
2019-01-02T05:39:55.837Z,24.03
2019-01-02T05:40:55.825Z,23.92
2019-01-02T05:41:55.842Z,23.99
2019-01-02T05:42:55.813Z,23.94
2019-01-02T05:43:55.795Z,23.97
2019-01-02T05:44:55.786Z,23.96
2019-01-02T05:45:55.767Z,23.94
2019-01-02T05:46:55.769Z,23.92
2019-01-02T05:47:55.750Z,23.97
2019-01-02T05:48:55.746Z,24.02
2019-01-02T05:49:55.728Z,23.93
2019-01-02T05:50:55.716Z,23.94
2019-01-02T05:51:55.743Z,24.03
2019-01-02T05:52:55.689Z,24.02
2019-01-02T05:53:55.677Z,23.97
2019-01-02T05:54:55.672Z,24.00
2019-01-02T05:55:55.655Z,23.96
2019-01-02T05:56:55.680Z,23.96
2019-01-02T05:57:55.636Z,23.96
2019-01-02T05:58:55.627Z,23.99
2019-01-02T05:59:55.612Z,23.94
2019-01-02T06:00:55.598Z,23.94
2019-01-02T06:01:55.601Z,24.00
2019-01-02T06:02:55.602Z,23.96
2019-01-02T06:03:55.570Z,24.00
2019-01-02T06:04:55.578Z,23.94
2019-01-02T06:05:55.543Z,23.99
2019-01-02T06:06:55.560Z,23.97
2019-01-02T06:07:55.520Z,23.94
2019-01-02T06:08:55.535Z,24.03
2019-01-02T06:09:55.499Z,23.89
2019-01-02T06:10:55.499Z,23.96
2019-01-02T06:11:55.495Z,23.93
2019-01-02T06:12:55.467Z,23.90
2019-01-02T06:13:55.455Z,23.93
2019-01-02T06:14:55.459Z,23.94
2019-01-02T06:15:55.433Z,23.90
2019-01-02T06:16:55.441Z,23.94
2019-01-02T06:17:55.420Z,23.93
2019-01-02T06:18:55.399Z,23.93
2019-01-02T06:19:55.387Z,23.89
2019-01-02T06:20:55.375Z,23.94
2019-01-02T06:21:55.540Z,23.96
2019-01-02T06:22:55.355Z,23.97
2019-01-02T06:23:55.373Z,23.99
2019-01-02T06:24:56.001Z,23.90
2019-01-02T06:25:55.323Z,23.93
2019-01-02T06:26:55.337Z,23.96
2019-01-02T06:27:55.342Z,23.97
2019-01-02T06:28:55.286Z,23.99
2019-01-02T06:29:55.280Z,23.93
2019-01-02T06:30:55.264Z,23.89
2019-01-02T06:31:55.287Z,23.97
2019-01-02T06:32:55.245Z,23.92
2019-01-02T06:33:55.230Z,23.85
2019-01-02T06:34:55.220Z,23.90
2019-01-02T06:35:55.212Z,24.00
2019-01-02T06:36:55.209Z,23.99
2019-01-02T06:37:55.201Z,23.96
2019-01-02T06:38:55.179Z,23.85
2019-01-02T06:39:55.162Z,23.99
2019-01-02T06:40:55.164Z,23.94
2019-01-02T06:41:55.149Z,23.84
2019-01-02T06:42:55.128Z,23.94
2019-01-02T06:43:55.153Z,23.85
2019-01-02T06:44:55.106Z,23.94
2019-01-02T06:45:55.096Z,23.99
2019-01-02T06:46:55.098Z,23.92
2019-01-02T06:47:55.072Z,23.87
2019-01-02T06:48:55.061Z,23.90
2019-01-02T06:49:55.057Z,23.97
2019-01-02T06:50:55.092Z,23.84
2019-01-02T06:51:55.042Z,23.87
2019-01-02T06:52:55.021Z,23.93
2019-01-02T06:53:55.016Z,23.90
2019-01-02T06:54:54.997Z,24.03
2019-01-02T06:55:54.983Z,23.89
2019-01-02T06:56:54.984Z,23.89
2019-01-02T06:57:54.965Z,23.89
2019-01-02T06:58:54.959Z,23.87
2019-01-02T06:59:54.938Z,23.90
2019-01-02T07:00:54.951Z,23.85
2019-01-02T07:01:54.944Z,23.85
2019-01-02T07:02:54.904Z,23.89
2019-01-02T07:03:54.908Z,23.85
2019-01-02T07:04:54.888Z,23.84
2019-01-02T07:05:54.880Z,23.87
2019-01-02T07:06:54.861Z,23.89
2019-01-02T07:07:54.866Z,23.82
2019-01-02T07:08:54.854Z,23.84
2019-01-02T07:09:54.838Z,23.84
2019-01-02T07:10:54.843Z,23.84
2019-01-02T07:11:54.804Z,23.85
2019-01-02T07:12:54.804Z,23.85
2019-01-02T07:13:54.804Z,23.87
2019-01-02T07:14:54.787Z,23.87
2019-01-02T07:15:54.759Z,23.89
2019-01-02T07:16:54.747Z,23.84
2019-01-02T07:17:54.780Z,23.81
2019-01-02T07:18:54.730Z,23.90
2019-01-02T07:19:54.714Z,23.84
2019-01-02T07:20:54.703Z,23.84
2019-01-02T07:21:54.697Z,23.87
2019-01-02T07:22:54.693Z,23.79
2019-01-02T07:23:54.686Z,23.85
2019-01-02T07:24:54.660Z,23.85
2019-01-02T07:25:54.650Z,23.87
2019-01-02T07:26:54.655Z,23.84
2019-01-02T07:27:54.638Z,23.82
2019-01-02T07:28:54.616Z,23.85
2019-01-02T07:29:54.667Z,23.87
2019-01-02T07:30:55.368Z,23.85
2019-01-02T07:31:54.607Z,23.92
2019-01-02T07:32:54.623Z,23.93
2019-01-02T07:33:54.568Z,23.79
2019-01-02T07:34:54.585Z,23.82
2019-01-02T07:35:54.543Z,23.89
2019-01-02T07:36:54.573Z,23.87
2019-01-02T07:37:54.541Z,23.81
2019-01-02T07:38:54.510Z,23.87
2019-01-02T07:39:54.507Z,23.81
2019-01-02T07:40:54.521Z,23.79
2019-01-02T07:41:54.471Z,23.94
2019-01-02T07:42:54.485Z,23.90
2019-01-02T07:43:54.446Z,23.92
2019-01-02T07:44:54.440Z,23.89
2019-01-02T07:45:54.473Z,23.84
2019-01-02T07:46:54.476Z,23.84
2019-01-02T07:47:54.456Z,23.87
2019-01-02T07:48:54.427Z,23.77
2019-01-02T07:49:54.418Z,23.89
2019-01-02T07:51:00.116Z,23.84
2019-01-02T07:51:55.527Z,23.82
2019-01-02T07:52:54.353Z,23.90
2019-01-02T07:53:54.422Z,23.84
2019-01-02T07:54:54.329Z,23.87
2019-01-02T07:55:54.321Z,23.82
2019-01-02T07:56:54.417Z,23.84
2019-01-02T07:57:54.294Z,23.85
2019-01-02T07:58:54.295Z,23.84
2019-01-02T07:59:54.285Z,23.84
2019-01-02T08:00:54.264Z,23.84
2019-01-02T08:01:54.301Z,23.85
2019-01-02T08:02:54.251Z,23.84
2019-01-02T08:03:54.253Z,23.82
2019-01-02T08:04:54.249Z,23.85
2019-01-02T08:05:54.210Z,23.84
2019-01-02T08:06:54.207Z,23.89
2019-01-02T08:07:54.239Z,23.79
2019-01-02T08:08:54.190Z,23.87
2019-01-02T08:09:54.221Z,23.85
2019-01-02T08:10:54.163Z,23.84
2019-01-02T08:11:54.138Z,23.87
2019-01-02T08:12:54.139Z,23.79
2019-01-02T08:13:54.150Z,23.85
2019-01-02T08:14:54.109Z,23.87
2019-01-02T08:15:54.148Z,23.89
2019-01-02T08:16:54.078Z,23.89
2019-01-02T08:17:54.085Z,23.82
2019-01-02T08:18:54.082Z,23.82
2019-01-02T08:19:54.052Z,23.82
2019-01-02T08:20:54.052Z,23.90
2019-01-02T08:21:54.067Z,23.84
2019-01-02T08:22:54.024Z,23.79
2019-01-02T08:23:54.019Z,23.89
2019-01-02T08:24:54.001Z,23.87
2019-01-02T08:25:53.988Z,23.84
2019-01-02T08:26:53.971Z,23.87
2019-01-02T08:27:53.999Z,23.82
2019-01-02T08:28:53.994Z,23.78
2019-01-02T08:29:53.974Z,23.81
2019-01-02T08:30:53.929Z,23.87
2019-01-02T08:31:53.928Z,23.82
2019-01-02T08:32:53.926Z,23.81
2019-01-02T08:33:53.915Z,23.77
2019-01-02T08:34:53.893Z,23.84
2019-01-02T08:35:53.891Z,23.85
2019-01-02T08:36:53.925Z,23.87
2019-01-02T08:37:53.849Z,23.82
2019-01-02T08:38:53.883Z,23.85
2019-01-02T08:39:53.872Z,23.92
2019-01-02T08:40:53.811Z,23.87
2019-01-02T08:41:53.799Z,23.81
2019-01-02T08:42:53.797Z,23.87
2019-01-02T08:43:53.780Z,23.87
2019-01-02T08:44:53.853Z,23.82
2019-01-02T08:45:53.775Z,23.85
2019-01-02T08:46:53.748Z,23.81
2019-01-02T08:47:53.741Z,23.78
2019-01-02T08:48:53.729Z,23.84
2019-01-02T08:49:53.727Z,23.93
2019-01-02T08:50:53.725Z,23.79
2019-01-02T08:51:53.733Z,23.81
2019-01-02T08:52:53.681Z,23.79
2019-01-02T08:53:53.683Z,23.82
2019-01-02T08:54:53.673Z,23.81
2019-01-02T08:55:53.665Z,23.84
2019-01-02T08:56:53.648Z,23.84
2019-01-02T08:57:53.655Z,23.82
2019-01-02T08:58:53.629Z,23.84
2019-01-02T08:59:53.621Z,23.82
2019-01-02T09:00:53.622Z,23.82
2019-01-02T09:01:53.623Z,23.85
2019-01-02T09:02:53.600Z,23.89
2019-01-02T09:03:53.563Z,23.89
2019-01-02T09:04:53.639Z,23.85
2019-01-02T09:05:53.536Z,23.84
2019-01-02T09:06:53.528Z,23.82
2019-01-02T09:07:53.509Z,23.82
2019-01-02T09:08:53.574Z,23.84
2019-01-02T09:09:53.534Z,23.90
2019-01-02T09:10:53.487Z,23.82
2019-01-02T09:11:53.494Z,23.89
2019-01-02T09:12:53.488Z,23.84
2019-01-02T09:13:53.544Z,23.79
2019-01-02T09:14:53.459Z,23.94
2019-01-02T09:15:53.425Z,23.84
2019-01-02T09:16:53.410Z,23.92
2019-01-02T09:17:53.414Z,23.85
2019-01-02T09:18:53.447Z,23.81
2019-01-02T09:19:53.390Z,23.84
2019-01-02T09:20:53.491Z,23.84
2019-01-02T09:21:53.362Z,23.89
2019-01-02T09:22:53.341Z,23.92
2019-01-02T09:23:53.346Z,23.93
2019-01-02T09:24:53.358Z,23.89
2019-01-02T09:25:53.305Z,23.87
2019-01-02T09:26:53.309Z,23.94
2019-01-02T09:27:53.307Z,23.90
2019-01-02T09:28:53.285Z,23.94
2019-01-02T09:29:53.321Z,23.92
2019-01-02T09:30:53.292Z,23.96
2019-01-02T09:31:53.267Z,23.99
2019-01-02T09:32:53.233Z,23.99
2019-01-02T09:33:53.230Z,23.93
2019-01-02T09:34:53.284Z,23.97
2019-01-02T09:35:53.285Z,23.93
2019-01-02T09:36:53.196Z,23.99
2019-01-02T09:37:53.178Z,23.94
2019-01-02T09:38:53.175Z,23.99
2019-01-02T09:39:53.160Z,23.97
2019-01-02T09:40:53.293Z,24.02
2019-01-02T09:41:53.172Z,24.00
2019-01-02T09:42:53.143Z,24.00
2019-01-02T09:43:53.178Z,23.97
2019-01-02T09:44:53.132Z,23.99
2019-01-02T09:45:53.117Z,24.02
2019-01-02T09:46:53.920Z,23.94
2019-01-02T09:47:53.095Z,24.02
2019-01-02T09:48:53.060Z,24.02
2019-01-02T09:49:53.042Z,23.99
2019-01-02T09:50:53.050Z,23.96
2019-01-02T09:51:53.025Z,23.99
2019-01-02T09:52:53.035Z,23.96
2019-01-02T09:53:53.026Z,24.02
2019-01-02T09:54:53.011Z,23.99
2019-01-02T09:55:52.985Z,24.02
2019-01-02T09:56:52.982Z,24.02
2019-01-02T09:57:52.949Z,24.08
2019-01-02T09:58:52.959Z,24.03
2019-01-02T09:59:52.927Z,24.07
2019-01-02T10:00:52.950Z,24.07
2019-01-02T10:01:52.902Z,24.08
2019-01-02T10:02:52.909Z,24.09
2019-01-02T10:03:52.882Z,24.07
2019-01-02T10:04:52.912Z,24.09
2019-01-02T10:05:52.901Z,24.11
2019-01-02T10:06:52.860Z,24.11
2019-01-02T10:07:52.922Z,24.11
2019-01-02T10:08:52.832Z,24.18
2019-01-02T10:09:52.820Z,24.14
2019-01-02T10:10:52.815Z,24.14
2019-01-02T10:11:52.799Z,24.17
2019-01-02T10:12:52.800Z,24.07
2019-01-02T10:13:52.798Z,24.12
2019-01-02T10:14:52.762Z,24.17
2019-01-02T10:15:52.803Z,24.12
2019-01-02T10:16:52.736Z,24.22
2019-01-02T10:17:52.740Z,24.17
2019-01-02T10:18:52.728Z,24.24
2019-01-02T10:19:52.718Z,24.26
2019-01-02T10:20:52.697Z,24.26
2019-01-02T10:21:52.695Z,24.29
2019-01-02T10:22:52.688Z,24.24
2019-01-02T10:23:52.667Z,24.36
2019-01-02T10:24:52.674Z,24.32
2019-01-02T10:25:52.653Z,24.34
2019-01-02T10:26:52.666Z,24.36
2019-01-02T10:27:52.618Z,24.37
2019-01-02T10:28:52.604Z,24.54
2019-01-02T10:29:52.595Z,24.48
2019-01-02T10:30:52.593Z,24.48
2019-01-02T10:31:52.654Z,24.56
2019-01-02T10:32:52.561Z,24.58
2019-01-02T10:33:52.547Z,24.63
2019-01-02T10:34:52.534Z,24.63
2019-01-02T10:35:52.629Z,24.67
2019-01-02T10:36:52.582Z,24.64
2019-01-02T10:37:52.531Z,24.61
2019-01-02T10:38:52.916Z,24.66
2019-01-02T10:39:52.483Z,24.63
2019-01-02T10:40:52.504Z,24.63
2019-01-02T10:41:52.479Z,24.63
2019-01-02T10:42:52.480Z,24.59
2019-01-02T10:43:52.436Z,24.52
2019-01-02T10:44:52.424Z,24.61
2019-01-02T10:45:52.453Z,24.52
2019-01-02T10:46:52.422Z,24.55
2019-01-02T10:47:52.387Z,24.61
2019-01-02T10:48:52.424Z,24.56
2019-01-02T10:49:52.365Z,24.48
2019-01-02T10:50:52.355Z,24.55
2019-01-02T10:51:52.360Z,24.58
2019-01-02T10:52:52.350Z,24.48
2019-01-02T10:53:52.324Z,24.46
2019-01-02T10:54:52.349Z,24.48
2019-01-02T10:55:52.307Z,24.46
2019-01-02T10:56:52.297Z,24.46
2019-01-02T10:57:52.278Z,24.48
2019-01-02T10:58:52.272Z,24.44
2019-01-02T10:59:52.260Z,24.42
2019-01-02T11:00:52.241Z,24.51
2019-01-02T11:01:52.287Z,24.45
2019-01-02T11:02:52.233Z,24.51
2019-01-02T11:03:52.226Z,24.39
2019-01-02T11:04:52.206Z,24.44
2019-01-02T11:05:52.186Z,24.46
2019-01-02T11:06:52.176Z,24.42
2019-01-02T11:07:52.177Z,24.48
2019-01-02T11:08:52.153Z,24.37
2019-01-02T11:09:52.141Z,24.37
2019-01-02T11:10:52.130Z,24.36
2019-01-02T11:11:52.125Z,24.36
2019-01-02T11:12:52.132Z,24.40
2019-01-02T11:13:52.101Z,24.45
2019-01-02T11:14:52.088Z,24.40
2019-01-02T11:15:52.074Z,24.42
2019-01-02T11:16:52.064Z,24.33
2019-01-02T11:17:52.064Z,24.44
2019-01-02T11:18:52.043Z,24.40
2019-01-02T11:19:52.037Z,24.45
2019-01-02T11:20:52.063Z,24.46
2019-01-02T11:21:52.008Z,24.34
2019-01-02T11:22:52.015Z,24.37
2019-01-02T11:23:51.988Z,24.39
2019-01-02T11:24:51.974Z,24.36
2019-01-02T11:25:51.973Z,24.34
2019-01-02T11:26:52.924Z,24.32
2019-01-02T11:27:51.959Z,24.39
2019-01-02T11:28:51.957Z,24.44
2019-01-02T11:29:51.919Z,24.42
2019-01-02T11:30:51.909Z,24.40
2019-01-02T11:31:51.898Z,24.40
2019-01-02T11:32:51.902Z,24.39
2019-01-02T11:33:51.883Z,24.39
2019-01-02T11:34:51.879Z,24.36
2019-01-02T11:35:51.896Z,24.36
2019-01-02T11:36:51.847Z,24.48
2019-01-02T11:37:51.887Z,24.34
2019-01-02T11:38:53.091Z,24.36
2019-01-02T11:39:51.832Z,24.42
2019-01-02T11:40:51.806Z,24.33
2019-01-02T11:41:51.786Z,24.39
2019-01-02T11:42:51.799Z,24.40
2019-01-02T11:43:51.795Z,24.36
2019-01-02T11:44:51.773Z,24.45
2019-01-02T11:45:51.754Z,24.44
2019-01-02T11:46:51.752Z,24.32
2019-01-02T11:47:51.719Z,24.34
2019-01-02T11:48:51.722Z,24.33
2019-01-02T11:49:51.761Z,24.40
2019-01-02T11:50:51.693Z,24.37
2019-01-02T11:51:51.714Z,24.36
2019-01-02T11:52:51.673Z,24.33
2019-01-02T11:53:51.679Z,24.32
2019-01-02T11:54:51.647Z,24.33
2019-01-02T11:55:51.630Z,24.29
2019-01-02T11:56:51.617Z,24.34
2019-01-02T11:57:51.627Z,24.34
2019-01-02T11:58:51.610Z,24.39
2019-01-02T11:59:51.584Z,24.30
2019-01-02T12:00:51.575Z,24.34
2019-01-02T12:01:51.576Z,24.33
2019-01-02T12:02:51.559Z,24.44
2019-01-02T12:03:51.562Z,24.40
2019-01-02T12:04:51.529Z,24.42
2019-01-02T12:05:51.516Z,24.33
2019-01-02T12:06:51.538Z,24.34
2019-01-02T12:07:51.495Z,24.33
2019-01-02T12:08:51.508Z,24.22
2019-01-02T12:09:51.484Z,24.22
2019-01-02T12:10:51.521Z,24.30
2019-01-02T12:11:51.459Z,24.36
2019-01-02T12:12:51.460Z,24.39
2019-01-02T12:13:51.443Z,24.36
2019-01-02T12:14:51.420Z,24.34
2019-01-02T12:15:51.415Z,24.29
2019-01-02T12:16:51.396Z,24.36
2019-01-02T12:17:51.387Z,24.30
2019-01-02T12:18:51.390Z,24.36
2019-01-02T12:19:51.386Z,24.30
2019-01-02T12:20:51.358Z,24.44
2019-01-02T12:21:51.341Z,24.40
2019-01-02T12:22:51.331Z,24.32
2019-01-02T12:23:51.326Z,24.36
2019-01-02T12:24:51.310Z,24.29
2019-01-02T12:25:51.303Z,24.32
2019-01-02T12:26:51.319Z,24.32
2019-01-02T12:27:51.275Z,24.36
2019-01-02T12:28:51.279Z,24.40
2019-01-02T12:29:51.255Z,24.36
2019-01-02T12:30:51.239Z,24.42
2019-01-02T12:31:51.231Z,24.44
2019-01-02T12:32:51.236Z,24.33
2019-01-02T12:33:51.218Z,24.40
2019-01-02T12:34:51.200Z,24.37
2019-01-02T12:35:51.213Z,24.46
2019-01-02T12:36:51.171Z,24.49
2019-01-02T12:37:51.202Z,24.46
2019-01-02T12:38:51.196Z,24.40
2019-01-02T12:39:51.140Z,24.42
2019-01-02T12:40:51.128Z,24.45
2019-01-02T12:41:51.130Z,24.51
2019-01-02T12:42:51.107Z,24.42
2019-01-02T12:43:51.093Z,24.46
2019-01-02T12:44:51.110Z,24.49
2019-01-02T12:45:51.085Z,24.49
2019-01-02T12:46:51.066Z,24.48
2019-01-02T12:47:51.058Z,24.46
2019-01-02T12:48:51.124Z,24.58
2019-01-02T12:49:51.055Z,24.55
2019-01-02T12:50:51.088Z,24.52
2019-01-02T12:51:51.004Z,24.56
2019-01-02T12:52:51.000Z,24.56